sensor_id;sensor_type;location;lat;lon;timestamp;P1;durP1;ratioP1;P2;durP2;ratioP2
76807;SDS011;65758;45.458;11.062;2023-02-28T00:00:35;5.20;;;3.80;;
76807;SDS011;65758;45.458;11.062;2023-02-28T00:03:02;5.10;;;3.70;;
76807;SDS011;65758;45.458;11.062;2023-02-28T00:05:30;4.90;;;3.50;;
76807;SDS011;65758;45.458;11.062;2023-02-28T00:07:57;3.30;;;2.90;;
76807;SDS011;65758;45.458;11.062;2023-02-28T00:12:53;4.40;;;3.50;;
76807;SDS011;65758;45.458;11.062;2023-02-28T00:15:23;4.50;;;3.80;;
76807;SDS011;65758;45.458;11.062;2023-02-28T00:17:50;4.80;;;3.60;;
76807;SDS011;65758;45.458;11.062;2023-02-28T00:20:18;5.10;;;3.90;;
76807;SDS011;65758;45.458;11.062;2023-02-28T00:22:46;5.80;;;3.40;;
76807;SDS011;65758;45.458;11.062;2023-02-28T00:25:18;5.20;;;3.50;;
76807;SDS011;65758;45.458;11.062;2023-02-28T00:27:46;5.30;;;3.50;;
76807;SDS011;65758;45.458;11.062;2023-02-28T00:30:15;4.20;;;3.50;;
76807;SDS011;65758;45.458;11.062;2023-02-28T00:32:47;5.20;;;3.60;;
76807;SDS011;65758;45.458;11.062;2023-02-28T00:35:13;4.60;;;3.60;;
76807;SDS011;65758;45.458;11.062;2023-02-28T00:37:41;4.70;;;3.40;;
76807;SDS011;65758;45.458;11.062;2023-02-28T00:40:08;4.50;;;3.20;;
76807;SDS011;65758;45.458;11.062;2023-02-28T00:42:36;3.50;;;2.50;;
76807;SDS011;65758;45.458;11.062;2023-02-28T00:45:03;5.30;;;3.80;;
76807;SDS011;65758;45.458;11.062;2023-02-28T00:47:31;4.70;;;3.60;;
76807;SDS011;65758;45.458;11.062;2023-02-28T00:49:58;4.70;;;3.80;;
76807;SDS011;65758;45.458;11.062;2023-02-28T00:52:27;4.80;;;4.00;;
76807;SDS011;65758;45.458;11.062;2023-02-28T00:54:54;5.60;;;3.90;;
76807;SDS011;65758;45.458;11.062;2023-02-28T00:57:21;7.00;;;3.70;;
76807;SDS011;65758;45.458;11.062;2023-02-28T01:02:14;4.40;;;3.30;;
76807;SDS011;65758;45.458;11.062;2023-02-28T01:04:41;5.80;;;3.60;;
76807;SDS011;65758;45.458;11.062;2023-02-28T01:09:35;3.80;;;3.30;;
76807;SDS011;65758;45.458;11.062;2023-02-28T01:12:03;6.40;;;3.90;;
76807;SDS011;65758;45.458;11.062;2023-02-28T01:14:31;5.90;;;3.60;;
76807;SDS011;65758;45.458;11.062;2023-02-28T01:19:26;4.40;;;3.60;;
76807;SDS011;65758;45.458;11.062;2023-02-28T01:21:53;4.90;;;3.70;;
76807;SDS011;65758;45.458;11.062;2023-02-28T01:26:46;4.80;;;3.30;;
76807;SDS011;65758;45.458;11.062;2023-02-28T01:29:13;4.80;;;3.70;;
76807;SDS011;65758;45.458;11.062;2023-02-28T01:31:44;5.30;;;3.50;;
76807;SDS011;65758;45.458;11.062;2023-02-28T01:36:38;4.20;;;3.00;;
76807;SDS011;65758;45.458;11.062;2023-02-28T01:39:05;5.50;;;3.40;;
76807;SDS011;65758;45.458;11.062;2023-02-28T01:41:32;4.00;;;2.70;;
76807;SDS011;65758;45.458;11.062;2023-02-28T01:46:33;5.50;;;3.90;;
76807;SDS011;65758;45.458;11.062;2023-02-28T01:49:14;4.60;;;3.90;;
76807;SDS011;65758;45.458;11.062;2023-02-28T01:51:45;4.00;;;3.30;;
76807;SDS011;65758;45.458;11.062;2023-02-28T01:54:27;4.00;;;3.60;;
76807;SDS011;65758;45.458;11.062;2023-02-28T01:56:58;4.30;;;3.90;;
76807;SDS011;65758;45.458;11.062;2023-02-28T01:59:33;6.20;;;3.70;;
76807;SDS011;65758;45.458;11.062;2023-02-28T02:02:04;5.00;;;3.50;;
76807;SDS011;65758;45.458;11.062;2023-02-28T02:04:37;3.90;;;3.30;;
76807;SDS011;65758;45.458;11.062;2023-02-28T02:07:07;4.40;;;3.30;;
76807;SDS011;65758;45.458;11.062;2023-02-28T02:09:36;3.80;;;3.00;;
76807;SDS011;65758;45.458;11.062;2023-02-28T02:12:05;4.60;;;3.80;;
76807;SDS011;65758;45.458;11.062;2023-02-28T02:15:07;4.30;;;3.60;;
76807;SDS011;65758;45.458;11.062;2023-02-28T02:17:44;4.90;;;3.40;;
76807;SDS011;65758;45.458;11.062;2023-02-28T02:23:24;3.80;;;3.40;;
76807;SDS011;65758;45.458;11.062;2023-02-28T02:36:42;4.10;;;3.70;;
76807;SDS011;65758;45.458;11.062;2023-02-28T02:41:53;5.70;;;4.00;;
76807;SDS011;65758;45.458;11.062;2023-02-28T02:44:24;4.40;;;3.30;;
76807;SDS011;65758;45.458;11.062;2023-02-28T02:47:01;4.40;;;3.70;;
76807;SDS011;65758;45.458;11.062;2023-02-28T02:49:36;6.60;;;4.30;;
76807;SDS011;65758;45.458;11.062;2023-02-28T02:52:07;4.40;;;3.70;;
76807;SDS011;65758;45.458;11.062;2023-02-28T02:54:38;5.50;;;3.80;;
76807;SDS011;65758;45.458;11.062;2023-02-28T02:57:14;5.60;;;3.60;;
76807;SDS011;65758;45.458;11.062;2023-02-28T02:59:47;4.60;;;3.10;;
76807;SDS011;65758;45.458;11.062;2023-02-28T03:02:18;5.00;;;2.60;;
76807;SDS011;65758;45.458;11.062;2023-02-28T03:04:58;3.80;;;3.20;;
76807;SDS011;65758;45.458;11.062;2023-02-28T03:07:29;3.30;;;2.80;;
76807;SDS011;65758;45.458;11.062;2023-02-28T03:09:56;5.40;;;3.90;;
76807;SDS011;65758;45.458;11.062;2023-02-28T03:12:27;5.20;;;4.00;;
76807;SDS011;65758;45.458;11.062;2023-02-28T03:15:17;4.40;;;3.60;;
76807;SDS011;65758;45.458;11.062;2023-02-28T03:20:37;3.80;;;3.20;;
76807;SDS011;65758;45.458;11.062;2023-02-28T03:26:22;3.10;;;2.80;;
76807;SDS011;65758;45.458;11.062;2023-02-28T03:31:27;3.60;;;3.30;;
76807;SDS011;65758;45.458;11.062;2023-02-28T03:34:01;5.40;;;4.00;;
76807;SDS011;65758;45.458;11.062;2023-02-28T03:36:35;4.00;;;3.30;;
76807;SDS011;65758;45.458;11.062;2023-02-28T03:39:20;4.50;;;3.50;;
76807;SDS011;65758;45.458;11.062;2023-02-28T03:44:30;4.20;;;3.90;;
76807;SDS011;65758;45.458;11.062;2023-02-28T03:47:11;3.90;;;3.50;;
76807;SDS011;65758;45.458;11.062;2023-02-28T03:49:50;5.10;;;3.60;;
76807;SDS011;65758;45.458;11.062;2023-02-28T03:52:22;5.20;;;3.70;;
76807;SDS011;65758;45.458;11.062;2023-02-28T03:54:54;3.00;;;2.10;;
76807;SDS011;65758;45.458;11.062;2023-02-28T03:57:44;5.70;;;3.80;;
76807;SDS011;65758;45.458;11.062;2023-02-28T04:00:39;4.70;;;3.70;;
76807;SDS011;65758;45.458;11.062;2023-02-28T04:03:09;4.50;;;4.00;;
76807;SDS011;65758;45.458;11.062;2023-02-28T04:05:52;3.80;;;3.30;;
76807;SDS011;65758;45.458;11.062;2023-02-28T04:08:21;5.10;;;3.90;;
76807;SDS011;65758;45.458;11.062;2023-02-28T04:10:54;5.60;;;4.20;;
76807;SDS011;65758;45.458;11.062;2023-02-28T04:13:25;6.20;;;4.00;;
76807;SDS011;65758;45.458;11.062;2023-02-28T04:18:18;5.30;;;3.90;;
76807;SDS011;65758;45.458;11.062;2023-02-28T04:20:45;5.60;;;4.50;;
76807;SDS011;65758;45.458;11.062;2023-02-28T04:23:12;4.50;;;3.60;;
76807;SDS011;65758;45.458;11.062;2023-02-28T04:25:39;5.40;;;4.00;;
76807;SDS011;65758;45.458;11.062;2023-02-28T04:28:06;5.20;;;4.00;;
76807;SDS011;65758;45.458;11.062;2023-02-28T04:30:33;6.10;;;4.30;;
76807;SDS011;65758;45.458;11.062;2023-02-28T04:35:27;5.20;;;3.70;;
76807;SDS011;65758;45.458;11.062;2023-02-28T04:37:53;5.50;;;3.70;;
76807;SDS011;65758;45.458;11.062;2023-02-28T04:40:20;4.80;;;3.70;;
76807;SDS011;65758;45.458;11.062;2023-02-28T04:45:13;5.30;;;4.00;;
76807;SDS011;65758;45.458;11.062;2023-02-28T04:47:40;5.60;;;4.10;;
76807;SDS011;65758;45.458;11.062;2023-02-28T04:50:07;5.20;;;4.00;;
76807;SDS011;65758;45.458;11.062;2023-02-28T04:52:35;4.40;;;3.90;;
76807;SDS011;65758;45.458;11.062;2023-02-28T04:55:01;4.60;;;4.00;;
76807;SDS011;65758;45.458;11.062;2023-02-28T04:57:30;6.10;;;4.10;;
76807;SDS011;65758;45.458;11.062;2023-02-28T04:59:56;4.90;;;4.20;;
76807;SDS011;65758;45.458;11.062;2023-02-28T05:02:23;4.30;;;3.80;;
76807;SDS011;65758;45.458;11.062;2023-02-28T05:04:50;5.40;;;4.00;;
76807;SDS011;65758;45.458;11.062;2023-02-28T05:07:17;4.90;;;3.80;;
76807;SDS011;65758;45.458;11.062;2023-02-28T05:09:44;6.80;;;4.20;;
76807;SDS011;65758;45.458;11.062;2023-02-28T05:12:11;4.70;;;3.40;;
76807;SDS011;65758;45.458;11.062;2023-02-28T05:14:37;5.20;;;3.30;;
76807;SDS011;65758;45.458;11.062;2023-02-28T05:17:04;5.30;;;4.10;;
76807;SDS011;65758;45.458;11.062;2023-02-28T05:19:31;5.20;;;4.10;;
76807;SDS011;65758;45.458;11.062;2023-02-28T05:24:25;5.60;;;3.70;;
76807;SDS011;65758;45.458;11.062;2023-02-28T05:26:53;4.20;;;3.80;;
76807;SDS011;65758;45.458;11.062;2023-02-28T05:29:21;6.00;;;3.50;;
76807;SDS011;65758;45.458;11.062;2023-02-28T05:31:48;5.20;;;3.70;;
76807;SDS011;65758;45.458;11.062;2023-02-28T05:34:16;5.70;;;4.20;;
76807;SDS011;65758;45.458;11.062;2023-02-28T05:36:43;5.10;;;3.90;;
76807;SDS011;65758;45.458;11.062;2023-02-28T05:41:42;5.00;;;3.50;;
76807;SDS011;65758;45.458;11.062;2023-02-28T05:44:10;4.00;;;2.70;;
76807;SDS011;65758;45.458;11.062;2023-02-28T05:46:37;4.70;;;3.60;;
76807;SDS011;65758;45.458;11.062;2023-02-28T05:49:04;6.40;;;4.20;;
76807;SDS011;65758;45.458;11.062;2023-02-28T05:51:31;5.20;;;3.70;;
76807;SDS011;65758;45.458;11.062;2023-02-28T05:56:26;6.60;;;3.50;;
76807;SDS011;65758;45.458;11.062;2023-02-28T05:58:53;4.80;;;4.20;;
76807;SDS011;65758;45.458;11.062;2023-02-28T06:03:49;5.40;;;3.30;;
76807;SDS011;65758;45.458;11.062;2023-02-28T06:06:16;5.30;;;3.40;;
76807;SDS011;65758;45.458;11.062;2023-02-28T06:08:43;5.30;;;3.90;;
76807;SDS011;65758;45.458;11.062;2023-02-28T06:11:11;5.80;;;3.60;;
76807;SDS011;65758;45.458;11.062;2023-02-28T06:13:38;5.90;;;4.00;;
76807;SDS011;65758;45.458;11.062;2023-02-28T06:16:05;4.60;;;4.10;;
76807;SDS011;65758;45.458;11.062;2023-02-28T06:18:32;5.20;;;3.60;;
76807;SDS011;65758;45.458;11.062;2023-02-28T06:23:25;3.90;;;2.90;;
76807;SDS011;65758;45.458;11.062;2023-02-28T06:28:19;4.80;;;3.20;;
76807;SDS011;65758;45.458;11.062;2023-02-28T06:30:46;7.30;;;4.10;;
76807;SDS011;65758;45.458;11.062;2023-02-28T06:35:39;4.70;;;3.70;;
76807;SDS011;65758;45.458;11.062;2023-02-28T06:38:09;5.20;;;4.00;;
76807;SDS011;65758;45.458;11.062;2023-02-28T06:40:37;6.70;;;4.00;;
76807;SDS011;65758;45.458;11.062;2023-02-28T06:43:04;5.50;;;3.90;;
76807;SDS011;65758;45.458;11.062;2023-02-28T06:45:30;5.50;;;4.20;;
76807;SDS011;65758;45.458;11.062;2023-02-28T06:47:57;5.80;;;3.70;;
76807;SDS011;65758;45.458;11.062;2023-02-28T06:50:24;6.10;;;4.00;;
76807;SDS011;65758;45.458;11.062;2023-02-28T06:52:51;5.70;;;4.40;;
76807;SDS011;65758;45.458;11.062;2023-02-28T06:55:20;4.90;;;3.50;;
76807;SDS011;65758;45.458;11.062;2023-02-28T06:57:47;5.10;;;3.60;;
76807;SDS011;65758;45.458;11.062;2023-02-28T07:00:14;4.20;;;3.10;;
76807;SDS011;65758;45.458;11.062;2023-02-28T07:02:41;5.60;;;4.30;;
76807;SDS011;65758;45.458;11.062;2023-02-28T07:07:34;4.30;;;3.60;;
76807;SDS011;65758;45.458;11.062;2023-02-28T07:10:04;5.50;;;3.70;;
76807;SDS011;65758;45.458;11.062;2023-02-28T07:12:32;5.50;;;3.70;;
76807;SDS011;65758;45.458;11.062;2023-02-28T07:14:59;5.30;;;3.90;;
76807;SDS011;65758;45.458;11.062;2023-02-28T07:19:52;7.10;;;4.10;;
76807;SDS011;65758;45.458;11.062;2023-02-28T07:22:19;6.60;;;4.10;;
76807;SDS011;65758;45.458;11.062;2023-02-28T07:27:12;5.90;;;4.10;;
76807;SDS011;65758;45.458;11.062;2023-02-28T07:29:49;6.40;;;3.60;;
76807;SDS011;65758;45.458;11.062;2023-02-28T07:32:16;5.40;;;3.80;;
76807;SDS011;65758;45.458;11.062;2023-02-28T07:34:45;3.40;;;2.70;;
76807;SDS011;65758;45.458;11.062;2023-02-28T07:37:12;6.20;;;3.80;;
76807;SDS011;65758;45.458;11.062;2023-02-28T07:39:38;5.90;;;4.30;;
76807;SDS011;65758;45.458;11.062;2023-02-28T07:44:32;5.40;;;3.90;;
76807;SDS011;65758;45.458;11.062;2023-02-28T07:47:00;5.60;;;3.90;;
76807;SDS011;65758;45.458;11.062;2023-02-28T07:49:27;5.40;;;4.00;;
76807;SDS011;65758;45.458;11.062;2023-02-28T07:54:20;4.10;;;3.60;;
76807;SDS011;65758;45.458;11.062;2023-02-28T07:59:14;7.60;;;4.10;;
76807;SDS011;65758;45.458;11.062;2023-02-28T08:01:40;6.80;;;4.30;;
76807;SDS011;65758;45.458;11.062;2023-02-28T08:04:07;5.70;;;4.00;;
76807;SDS011;65758;45.458;11.062;2023-02-28T08:09:01;6.10;;;4.50;;
76807;SDS011;65758;45.458;11.062;2023-02-28T08:11:28;5.40;;;3.90;;
76807;SDS011;65758;45.458;11.062;2023-02-28T08:13:55;7.70;;;4.60;;
76807;SDS011;65758;45.458;11.062;2023-02-28T08:18:52;6.20;;;4.30;;
76807;SDS011;65758;45.458;11.062;2023-02-28T08:21:19;3.90;;;3.10;;
76807;SDS011;65758;45.458;11.062;2023-02-28T08:23:47;6.50;;;3.60;;
76807;SDS011;65758;45.458;11.062;2023-02-28T08:26:16;7.40;;;4.00;;
76807;SDS011;65758;45.458;11.062;2023-02-28T08:28:43;3.90;;;3.20;;
76807;SDS011;65758;45.458;11.062;2023-02-28T08:31:12;3.70;;;3.30;;
76807;SDS011;65758;45.458;11.062;2023-02-28T08:33:41;7.10;;;4.20;;
76807;SDS011;65758;45.458;11.062;2023-02-28T08:36:08;7.70;;;5.10;;
76807;SDS011;65758;45.458;11.062;2023-02-28T08:38:36;6.30;;;4.50;;
76807;SDS011;65758;45.458;11.062;2023-02-28T08:41:04;5.40;;;4.10;;
76807;SDS011;65758;45.458;11.062;2023-02-28T08:43:33;6.80;;;4.80;;
76807;SDS011;65758;45.458;11.062;2023-02-28T08:46:01;3.70;;;2.70;;
76807;SDS011;65758;45.458;11.062;2023-02-28T08:48:29;6.50;;;3.90;;
76807;SDS011;65758;45.458;11.062;2023-02-28T08:50:58;5.60;;;4.10;;
76807;SDS011;65758;45.458;11.062;2023-02-28T08:53:34;8.30;;;4.70;;
76807;SDS011;65758;45.458;11.062;2023-02-28T08:56:09;5.10;;;4.00;;
76807;SDS011;65758;45.458;11.062;2023-02-28T08:58:40;6.00;;;4.50;;
76807;SDS011;65758;45.458;11.062;2023-02-28T09:01:08;5.60;;;4.10;;
76807;SDS011;65758;45.458;11.062;2023-02-28T09:03:35;5.20;;;4.30;;
76807;SDS011;65758;45.458;11.062;2023-02-28T09:06:02;6.80;;;4.00;;
76807;SDS011;65758;45.458;11.062;2023-02-28T09:08:31;5.30;;;3.70;;
76807;SDS011;65758;45.458;11.062;2023-02-28T09:10:58;4.80;;;3.80;;
76807;SDS011;65758;45.458;11.062;2023-02-28T09:13:27;6.40;;;4.20;;
76807;SDS011;65758;45.458;11.062;2023-02-28T09:16:00;5.00;;;3.80;;
76807;SDS011;65758;45.458;11.062;2023-02-28T09:18:28;5.10;;;3.50;;
76807;SDS011;65758;45.458;11.062;2023-02-28T09:20:56;4.80;;;3.60;;
76807;SDS011;65758;45.458;11.062;2023-02-28T09:23:24;6.20;;;3.40;;
76807;SDS011;65758;45.458;11.062;2023-02-28T09:25:52;5.60;;;4.20;;
76807;SDS011;65758;45.458;11.062;2023-02-28T09:28:21;5.50;;;3.60;;
76807;SDS011;65758;45.458;11.062;2023-02-28T09:30:49;5.20;;;3.90;;
76807;SDS011;65758;45.458;11.062;2023-02-28T09:33:18;4.70;;;3.60;;
76807;SDS011;65758;45.458;11.062;2023-02-28T09:35:50;4.60;;;3.60;;
76807;SDS011;65758;45.458;11.062;2023-02-28T09:38:23;4.50;;;3.80;;
76807;SDS011;65758;45.458;11.062;2023-02-28T09:40:51;5.40;;;4.10;;
76807;SDS011;65758;45.458;11.062;2023-02-28T09:43:21;3.40;;;2.90;;
76807;SDS011;65758;45.458;11.062;2023-02-28T09:45:57;7.70;;;4.60;;
76807;SDS011;65758;45.458;11.062;2023-02-28T09:48:32;6.00;;;4.00;;
76807;SDS011;65758;45.458;11.062;2023-02-28T09:51:15;5.60;;;4.20;;
76807;SDS011;65758;45.458;11.062;2023-02-28T09:54:01;6.20;;;3.80;;
76807;SDS011;65758;45.458;11.062;2023-02-28T09:56:39;5.20;;;4.10;;
76807;SDS011;65758;45.458;11.062;2023-02-28T10:04:36;5.00;;;3.90;;
76807;SDS011;65758;45.458;11.062;2023-02-28T10:12:45;6.00;;;4.50;;
76807;SDS011;65758;45.458;11.062;2023-02-28T10:15:14;7.90;;;5.00;;
76807;SDS011;65758;45.458;11.062;2023-02-28T10:17:44;4.30;;;3.70;;
76807;SDS011;65758;45.458;11.062;2023-02-28T10:20:33;7.10;;;4.60;;
76807;SDS011;65758;45.458;11.062;2023-02-28T10:23:13;8.30;;;5.80;;
76807;SDS011;65758;45.458;11.062;2023-02-28T10:25:54;10.20;;;6.30;;
76807;SDS011;65758;45.458;11.062;2023-02-28T10:28:25;9.70;;;5.70;;
76807;SDS011;65758;45.458;11.062;2023-02-28T10:30:54;8.30;;;5.00;;
76807;SDS011;65758;45.458;11.062;2023-02-28T10:33:23;4.60;;;3.60;;
76807;SDS011;65758;45.458;11.062;2023-02-28T10:35:56;8.90;;;6.10;;
76807;SDS011;65758;45.458;11.062;2023-02-28T10:38:27;7.40;;;4.70;;
76807;SDS011;65758;45.458;11.062;2023-02-28T10:43:37;6.90;;;4.50;;
76807;SDS011;65758;45.458;11.062;2023-02-28T10:48:38;6.10;;;4.30;;
76807;SDS011;65758;45.458;11.062;2023-02-28T10:51:13;5.50;;;4.50;;
76807;SDS011;65758;45.458;11.062;2023-02-28T10:53:54;7.90;;;5.00;;
76807;SDS011;65758;45.458;11.062;2023-02-28T10:56:29;7.50;;;4.90;;
76807;SDS011;65758;45.458;11.062;2023-02-28T11:04:01;4.90;;;4.00;;
76807;SDS011;65758;45.458;11.062;2023-02-28T11:09:00;6.50;;;4.70;;
76807;SDS011;65758;45.458;11.062;2023-02-28T11:11:30;7.10;;;4.70;;
76807;SDS011;65758;45.458;11.062;2023-02-28T11:14:47;4.20;;;3.60;;
76807;SDS011;65758;45.458;11.062;2023-02-28T11:17:34;3.10;;;2.80;;
76807;SDS011;65758;45.458;11.062;2023-02-28T11:20:01;7.30;;;4.90;;
76807;SDS011;65758;45.458;11.062;2023-02-28T11:22:35;6.90;;;4.60;;
76807;SDS011;65758;45.458;11.062;2023-02-28T11:25:21;4.40;;;3.60;;
76807;SDS011;65758;45.458;11.062;2023-02-28T11:27:52;5.20;;;4.20;;
76807;SDS011;65758;45.458;11.062;2023-02-28T11:32:53;6.90;;;4.80;;
76807;SDS011;65758;45.458;11.062;2023-02-28T11:37:55;6.00;;;4.50;;
76807;SDS011;65758;45.458;11.062;2023-02-28T11:40:28;5.90;;;4.40;;
76807;SDS011;65758;45.458;11.062;2023-02-28T11:45:57;6.30;;;4.60;;
76807;SDS011;65758;45.458;11.062;2023-02-28T11:48:30;7.00;;;4.80;;
76807;SDS011;65758;45.458;11.062;2023-02-28T11:56:54;5.50;;;4.40;;
76807;SDS011;65758;45.458;11.062;2023-02-28T11:59:30;5.90;;;4.80;;
76807;SDS011;65758;45.458;11.062;2023-02-28T12:02:20;6.10;;;4.20;;
76807;SDS011;65758;45.458;11.062;2023-02-28T12:07:49;7.40;;;4.80;;
76807;SDS011;65758;45.458;11.062;2023-02-28T12:10:27;6.80;;;4.60;;
76807;SDS011;65758;45.458;11.062;2023-02-28T12:13:15;8.30;;;5.20;;
76807;SDS011;65758;45.458;11.062;2023-02-28T12:15:51;4.10;;;3.60;;
76807;SDS011;65758;45.458;11.062;2023-02-28T12:18:24;5.90;;;4.20;;
76807;SDS011;65758;45.458;11.062;2023-02-28T12:23:47;6.40;;;5.10;;
76807;SDS011;65758;45.458;11.062;2023-02-28T12:26:41;7.80;;;5.70;;
76807;SDS011;65758;45.458;11.062;2023-02-28T12:34:22;7.60;;;5.50;;
76807;SDS011;65758;45.458;11.062;2023-02-28T12:36:54;8.80;;;5.80;;
76807;SDS011;65758;45.458;11.062;2023-02-28T12:39:26;8.40;;;6.00;;
76807;SDS011;65758;45.458;11.062;2023-02-28T12:41:59;16.50;;;4.70;;
76807;SDS011;65758;45.458;11.062;2023-02-28T12:47:00;7.80;;;5.40;;
76807;SDS011;65758;45.458;11.062;2023-02-28T12:49:42;12.10;;;6.30;;
76807;SDS011;65758;45.458;11.062;2023-02-28T12:52:17;9.20;;;6.30;;
76807;SDS011;65758;45.458;11.062;2023-02-28T12:55:40;8.70;;;6.60;;
76807;SDS011;65758;45.458;11.062;2023-02-28T13:00:24;9.70;;;6.30;;
76807;SDS011;65758;45.458;11.062;2023-02-28T13:05:37;7.80;;;6.40;;
76807;SDS011;65758;45.458;11.062;2023-02-28T13:10:57;9.60;;;5.60;;
76807;SDS011;65758;45.458;11.062;2023-02-28T13:13:27;9.30;;;6.30;;
76807;SDS011;65758;45.458;11.062;2023-02-28T13:21:08;9.20;;;6.10;;
76807;SDS011;65758;45.458;11.062;2023-02-28T13:28:58;7.70;;;6.10;;
76807;SDS011;65758;45.458;11.062;2023-02-28T13:31:25;8.20;;;6.00;;
76807;SDS011;65758;45.458;11.062;2023-02-28T13:36:27;10.00;;;6.20;;
76807;SDS011;65758;45.458;11.062;2023-02-28T13:39:01;10.90;;;6.50;;
76807;SDS011;65758;45.458;11.062;2023-02-28T13:41:49;15.70;;;6.60;;
76807;SDS011;65758;45.458;11.062;2023-02-28T13:44:17;8.00;;;5.40;;
76807;SDS011;65758;45.458;11.062;2023-02-28T13:57:23;7.80;;;5.40;;
76807;SDS011;65758;45.458;11.062;2023-02-28T14:11:35;8.40;;;4.80;;
76807;SDS011;65758;45.458;11.062;2023-02-28T14:14:05;8.60;;;5.90;;
76807;SDS011;65758;45.458;11.062;2023-02-28T14:16:44;9.00;;;6.20;;
76807;SDS011;65758;45.458;11.062;2023-02-28T14:19:15;6.80;;;5.20;;
76807;SDS011;65758;45.458;11.062;2023-02-28T14:30:02;8.40;;;5.60;;
76807;SDS011;65758;45.458;11.062;2023-02-28T14:38:42;9.40;;;6.50;;
76807;SDS011;65758;45.458;11.062;2023-02-28T14:41:14;10.40;;;5.20;;
76807;SDS011;65758;45.458;11.062;2023-02-28T14:43:50;6.60;;;5.30;;
76807;SDS011;65758;45.458;11.062;2023-02-28T14:46:19;8.20;;;6.30;;
76807;SDS011;65758;45.458;11.062;2023-02-28T14:48:47;7.30;;;5.80;;
76807;SDS011;65758;45.458;11.062;2023-02-28T14:51:20;10.20;;;5.70;;
76807;SDS011;65758;45.458;11.062;2023-02-28T14:53:51;9.00;;;5.40;;
76807;SDS011;65758;45.458;11.062;2023-02-28T14:56:24;12.30;;;5.80;;
76807;SDS011;65758;45.458;11.062;2023-02-28T14:58:55;9.40;;;6.00;;
76807;SDS011;65758;45.458;11.062;2023-02-28T15:01:23;6.80;;;4.30;;
76807;SDS011;65758;45.458;11.062;2023-02-28T15:03:59;8.60;;;5.70;;
76807;SDS011;65758;45.458;11.062;2023-02-28T15:06:32;6.70;;;5.20;;
76807;SDS011;65758;45.458;11.062;2023-02-28T15:09:15;8.90;;;5.40;;
76807;SDS011;65758;45.458;11.062;2023-02-28T15:11:45;10.50;;;6.10;;
76807;SDS011;65758;45.458;11.062;2023-02-28T15:14:19;8.90;;;5.50;;
76807;SDS011;65758;45.458;11.062;2023-02-28T15:16:50;9.20;;;5.80;;
76807;SDS011;65758;45.458;11.062;2023-02-28T15:19:30;11.50;;;6.10;;
76807;SDS011;65758;45.458;11.062;2023-02-28T15:22:04;8.30;;;6.00;;
76807;SDS011;65758;45.458;11.062;2023-02-28T15:24:44;9.40;;;5.90;;
76807;SDS011;65758;45.458;11.062;2023-02-28T15:27:15;9.50;;;5.90;;
76807;SDS011;65758;45.458;11.062;2023-02-28T15:29:50;11.30;;;6.00;;
76807;SDS011;65758;45.458;11.062;2023-02-28T15:32:26;9.10;;;5.60;;
76807;SDS011;65758;45.458;11.062;2023-02-28T15:34:59;8.10;;;5.20;;
76807;SDS011;65758;45.458;11.062;2023-02-28T15:37:55;9.10;;;6.00;;
76807;SDS011;65758;45.458;11.062;2023-02-28T15:40:28;8.50;;;5.70;;
76807;SDS011;65758;45.458;11.062;2023-02-28T15:43:12;9.90;;;6.10;;
76807;SDS011;65758;45.458;11.062;2023-02-28T15:48:42;9.30;;;6.30;;
76807;SDS011;65758;45.458;11.062;2023-02-28T15:53:41;9.40;;;6.10;;
76807;SDS011;65758;45.458;11.062;2023-02-28T15:59:06;13.20;;;7.00;;
76807;SDS011;65758;45.458;11.062;2023-02-28T16:01:34;10.80;;;6.50;;
76807;SDS011;65758;45.458;11.062;2023-02-28T16:04:11;9.90;;;6.50;;
76807;SDS011;65758;45.458;11.062;2023-02-28T16:06:44;14.00;;;5.80;;
76807;SDS011;65758;45.458;11.062;2023-02-28T16:09:12;9.70;;;6.30;;
76807;SDS011;65758;45.458;11.062;2023-02-28T16:11:42;7.90;;;6.10;;
76807;SDS011;65758;45.458;11.062;2023-02-28T16:14:24;8.60;;;5.60;;
76807;SDS011;65758;45.458;11.062;2023-02-28T16:16:54;8.00;;;5.80;;
76807;SDS011;65758;45.458;11.062;2023-02-28T16:19:23;9.50;;;6.00;;
76807;SDS011;65758;45.458;11.062;2023-02-28T16:21:50;10.20;;;5.90;;
76807;SDS011;65758;45.458;11.062;2023-02-28T16:24:17;7.90;;;4.80;;
76807;SDS011;65758;45.458;11.062;2023-02-28T16:26:47;9.10;;;6.80;;
76807;SDS011;65758;45.458;11.062;2023-02-28T16:29:39;9.00;;;6.80;;
76807;SDS011;65758;45.458;11.062;2023-02-28T16:32:05;9.30;;;5.90;;
76807;SDS011;65758;45.458;11.062;2023-02-28T16:34:33;7.50;;;5.30;;
76807;SDS011;65758;45.458;11.062;2023-02-28T16:36:59;10.40;;;6.30;;
76807;SDS011;65758;45.458;11.062;2023-02-28T16:39:26;12.40;;;7.20;;
76807;SDS011;65758;45.458;11.062;2023-02-28T16:44:26;10.90;;;5.90;;
76807;SDS011;65758;45.458;11.062;2023-02-28T16:46:54;10.90;;;6.50;;
76807;SDS011;65758;45.458;11.062;2023-02-28T16:49:21;11.70;;;7.00;;
76807;SDS011;65758;45.458;11.062;2023-02-28T16:51:48;10.80;;;6.20;;
76807;SDS011;65758;45.458;11.062;2023-02-28T16:54:15;10.30;;;6.40;;
76807;SDS011;65758;45.458;11.062;2023-02-28T16:56:43;15.30;;;8.70;;
76807;SDS011;65758;45.458;11.062;2023-02-28T16:59:11;14.50;;;8.20;;
76807;SDS011;65758;45.458;11.062;2023-02-28T17:01:40;18.70;;;9.40;;
76807;SDS011;65758;45.458;11.062;2023-02-28T17:04:08;16.90;;;9.90;;
76807;SDS011;65758;45.458;11.062;2023-02-28T17:06:39;13.50;;;7.30;;
76807;SDS011;65758;45.458;11.062;2023-02-28T17:09:08;13.80;;;8.00;;
76807;SDS011;65758;45.458;11.062;2023-02-28T17:11:42;14.00;;;7.30;;
76807;SDS011;65758;45.458;11.062;2023-02-28T17:14:10;11.80;;;8.10;;
76807;SDS011;65758;45.458;11.062;2023-02-28T17:16:37;11.10;;;7.90;;
76807;SDS011;65758;45.458;11.062;2023-02-28T17:19:14;15.10;;;7.80;;
76807;SDS011;65758;45.458;11.062;2023-02-28T17:21:42;10.00;;;7.10;;
76807;SDS011;65758;45.458;11.062;2023-02-28T17:24:09;12.00;;;7.40;;
76807;SDS011;65758;45.458;11.062;2023-02-28T17:26:44;11.00;;;7.40;;
76807;SDS011;65758;45.458;11.062;2023-02-28T17:29:21;11.00;;;7.50;;
76807;SDS011;65758;45.458;11.062;2023-02-28T17:31:48;11.70;;;6.90;;
76807;SDS011;65758;45.458;11.062;2023-02-28T17:34:15;11.50;;;8.00;;
76807;SDS011;65758;45.458;11.062;2023-02-28T17:36:45;11.80;;;6.20;;
76807;SDS011;65758;45.458;11.062;2023-02-28T17:39:13;10.90;;;6.80;;
76807;SDS011;65758;45.458;11.062;2023-02-28T17:41:41;13.40;;;7.10;;
76807;SDS011;65758;45.458;11.062;2023-02-28T17:44:08;13.20;;;7.50;;
76807;SDS011;65758;45.458;11.062;2023-02-28T17:46:35;13.00;;;7.10;;
76807;SDS011;65758;45.458;11.062;2023-02-28T17:49:03;11.90;;;6.70;;
76807;SDS011;65758;45.458;11.062;2023-02-28T17:51:30;15.40;;;6.80;;
76807;SDS011;65758;45.458;11.062;2023-02-28T17:53:57;11.50;;;7.10;;
76807;SDS011;65758;45.458;11.062;2023-02-28T17:56:24;11.60;;;6.90;;
76807;SDS011;65758;45.458;11.062;2023-02-28T17:58:53;12.80;;;8.00;;
76807;SDS011;65758;45.458;11.062;2023-02-28T18:01:21;12.40;;;8.50;;
76807;SDS011;65758;45.458;11.062;2023-02-28T18:03:50;13.10;;;8.60;;
76807;SDS011;65758;45.458;11.062;2023-02-28T18:09:17;13.20;;;8.10;;
76807;SDS011;65758;45.458;11.062;2023-02-28T18:11:49;14.70;;;9.00;;
76807;SDS011;65758;45.458;11.062;2023-02-28T18:14:18;16.00;;;8.90;;
76807;SDS011;65758;45.458;11.062;2023-02-28T18:16:46;15.30;;;7.80;;
76807;SDS011;65758;45.458;11.062;2023-02-28T18:19:13;13.80;;;8.40;;
76807;SDS011;65758;45.458;11.062;2023-02-28T18:21:46;16.50;;;8.40;;
76807;SDS011;65758;45.458;11.062;2023-02-28T18:24:15;15.00;;;8.80;;
76807;SDS011;65758;45.458;11.062;2023-02-28T18:26:42;18.50;;;9.00;;